Time;durP1;ratioP1;P1;durP2;ratioP2;P2;SDS_P1;SDS_P2;PMS_P1;PMS_P2;Temp;Humidity;BMP_temperature;BMP_pressure;BME280_temperature;BME280_humidity;BME280_pressure;Samples;Min_cycle;Max_cycle;Signal;HPM_P1;HPM_P2
2024/02/02 00:04:30;;;;;;;11.60;10.70;;;8.80;45.80;;;;;;10527797;28;20228;-68
2024/02/02 00:09:33;;;;;;;11.07;10.17;;;8.80;45.80;;;;;;10531011;28;20739;-71
2024/02/02 00:14:38;;;;;;;10.53;9.73;;;8.80;45.80;;;;;;10531059;28;20235;-71
2024/02/02 00:19:42;;;;;;;11.27;10.23;;;8.80;45.80;;;;;;10535072;28;20779;-67
2024/02/02 00:24:45;;;;;;;11.97;10.97;;;8.90;46.00;;;;;;10530947;28;20222;-71
2024/02/02 00:29:50;;;;;;;11.33;10.33;;;8.90;45.90;;;;;;10530639;28;20231;-71
2024/02/02 00:34:53;;;;;;;11.17;10.27;;;8.90;45.90;;;;;;10534207;28;20247;-71
2024/02/02 00:39:56;;;;;;;10.50;9.60;;;8.90;45.90;;;;;;10531809;28;20601;-70
2024/02/02 00:45:01;;;;;;;11.17;10.13;;;8.90;45.80;;;;;;10535668;28;20318;-70
2024/02/02 00:50:06;;;;;;;9.53;8.77;;;8.90;45.90;;;;;;10533615;27;20222;-70
2024/02/02 00:55:10;;;;;;;11.03;9.90;;;8.80;45.60;;;;;;10528328;28;20757;-70
2024/02/02 01:00:14;;;;;;;10.00;9.00;;;8.80;45.50;;;;;;10531593;28;20220;-70
2024/02/02 01:05:18;;;;;;;8.83;8.13;;;8.80;45.50;;;;;;10536324;28;20227;-70
2024/02/02 01:10:23;;;;;;;9.00;8.20;;;8.70;45.20;;;;;;10530982;28;20223;-67
2024/02/02 01:15:28;;;;;;;9.20;8.40;;;8.70;45.30;;;;;;10533817;28;20230;-67
2024/02/02 01:20:32;;;;;;;9.60;8.47;;;8.70;45.30;;;;;;10531280;28;20226;-70
2024/02/02 01:25:35;;;;;;;9.33;8.37;;;8.60;45.10;;;;;;10529777;28;20227;-71
2024/02/02 01:30:39;;;;;;;10.67;8.27;;;8.60;45.20;;;;;;10528030;28;20233;-71
2024/02/02 01:35:43;;;;;;;9.20;8.13;;;8.60;45.30;;;;;;10529334;28;20640;-70
2024/02/02 01:40:46;;;;;;;8.53;7.73;;;8.60;45.30;;;;;;10525827;28;20215;-71
2024/02/02 01:45:51;;;;;;;8.47;7.67;;;8.50;45.10;;;;;;10526291;28;20223;-70
2024/02/02 01:50:54;;;;;;;8.47;7.67;;;8.50;45.20;;;;;;10528255;28;20227;-71
2024/02/02 01:55:58;;;;;;;7.50;6.77;;;8.50;44.90;;;;;;10532581;28;20223;-71
2024/02/02 02:01:02;;;;;;;7.70;6.83;;;8.50;45.10;;;;;;10521684;28;20226;-71
2024/02/02 02:06:06;;;;;;;8.07;7.27;;;8.50;45.30;;;;;;10522172;28;20708;-70
2024/02/02 02:11:10;;;;;;;7.77;6.80;;;8.50;45.20;;;;;;10533668;28;20228;-70
2024/02/02 02:16:15;;;;;;;10.97;7.33;;;8.50;45.10;;;;;;10524800;28;20770;-70
2024/02/02 02:21:27;;;;;;;7.40;6.70;;;8.50;45.00;;;;;;10528805;28;20219;-70
2024/02/02 02:26:31;;;;;;;7.67;5.80;;;8.40;45.00;;;;;;10525512;28;20224;-70
2024/02/02 02:31:34;;;;;;;7.53;6.17;;;8.40;44.90;;;;;;10527961;28;20231;-71
2024/02/02 02:36:39;;;;;;;6.60;5.93;;;8.40;44.70;;;;;;10526398;28;20227;-71
2024/02/02 02:41:42;;;;;;;6.93;6.17;;;8.40;44.40;;;;;;10527941;28;20220;-71
2024/02/02 02:46:45;;;;;;;8.27;6.60;;;8.40;44.40;;;;;;10530850;28;20237;-71
2024/02/02 02:51:50;;;;;;;7.27;6.13;;;8.30;44.40;;;;;;10528481;28;20702;-71
2024/02/02 02:56:53;;;;;;;8.23;6.20;;;8.30;44.10;;;;;;10536838;28;20700;-71
2024/02/02 03:01:56;;;;;;;8.83;7.93;;;8.30;44.10;;;;;;10527901;28;20234;-71
2024/02/02 03:07:02;;;;;;;10.63;8.37;;;8.20;44.10;;;;;;10532273;28;20254;-71
2024/02/02 03:12:07;;;;;;;9.03;7.27;;;8.10;44.10;;;;;;10532371;28;20705;-70
2024/02/02 03:17:10;;;;;;;9.00;7.83;;;8.00;44.40;;;;;;10536909;28;20281;-67
2024/02/02 03:22:14;;;;;;;8.97;7.60;;;7.90;44.60;;;;;;10538860;28;20302;-67
2024/02/02 03:27:18;;;;;;;12.13;7.80;;;7.90;44.80;;;;;;10535064;28;20251;-71
2024/02/02 03:32:22;;;;;;;9.17;7.07;;;7.90;44.70;;;;;;10544344;28;20235;-69
2024/02/02 03:37:26;;;;;;;8.53;7.60;;;7.80;44.80;;;;;;10543541;27;20230;-70
2024/02/02 03:42:29;;;;;;;9.30;7.13;;;7.80;45.70;;;;;;10536584;28;20749;-71
2024/02/02 03:47:33;;;;;;;7.27;6.07;;;7.80;45.00;;;;;;10531657;28;20246;-71
2024/02/02 03:52:37;;;;;;;10.73;7.10;;;7.80;45.00;;;;;;10537360;28;20258;-71
2024/02/02 03:57:41;;;;;;;7.40;6.63;;;7.80;45.00;;;;;;10536165;28;20615;-70
2024/02/02 04:02:45;;;;;;;10.60;6.03;;;7.80;44.90;;;;;;10538045;28;20238;-70
2024/02/02 04:07:50;;;;;;;10.17;6.80;;;7.80;44.80;;;;;;10530549;28;20266;-70
2024/02/02 04:12:53;;;;;;;9.63;6.30;;;7.80;45.00;;;;;;10532752;28;20223;-71
2024/02/02 04:17:56;;;;;;;6.47;5.83;;;7.80;45.00;;;;;;10534682;27;20220;-71
2024/02/02 04:23:01;;;;;;;7.33;6.50;;;7.80;45.00;;;;;;10530360;28;20220;-71
2024/02/02 04:28:08;;;;;;;7.50;6.60;;;7.80;45.00;;;;;;10531656;27;20211;-70
2024/02/02 04:33:11;;;;;;;9.30;6.90;;;7.80;45.10;;;;;;10532917;28;20231;-71
2024/02/02 04:38:17;;;;;;;7.83;6.70;;;7.80;45.00;;;;;;10528745;28;20604;-71
2024/02/02 04:43:20;;;;;;;8.57;6.47;;;7.80;45.00;;;;;;10533955;27;20348;-71
2024/02/02 04:48:24;;;;;;;7.47;6.60;;;7.80;45.10;;;;;;10530205;28;20693;-70
2024/02/02 04:53:29;;;;;;;9.87;6.60;;;7.80;45.00;;;;;;10532113;28;20233;-71
2024/02/02 04:58:32;;;;;;;11.27;7.20;;;7.80;45.00;;;;;;10530664;28;20220;-71
2024/02/02 05:03:36;;;;;;;9.53;7.10;;;7.80;45.00;;;;;;10531427;28;20751;-67
2024/02/02 05:08:41;;;;;;;8.63;7.00;;;7.80;44.90;;;;;;10530657;28;20227;-67
2024/02/02 05:13:44;;;;;;;8.33;7.40;;;7.80;44.90;;;;;;10527771;28;20223;-71
2024/02/02 05:18:47;;;;;;;8.80;7.50;;;7.80;45.00;;;;;;10529427;28;20223;-70
2024/02/02 05:23:52;;;;;;;11.13;8.23;;;7.80;44.90;;;;;;10527652;28;20223;-67
2024/02/02 05:28:59;;;;;;;10.63;8.07;;;7.80;45.00;;;;;;10530526;28;20215;-70
2024/02/02 05:34:03;;;;;;;8.20;7.40;;;7.80;45.00;;;;;;10528573;28;20246;-70
2024/02/02 05:39:09;;;;;;;7.60;6.90;;;7.80;45.00;;;;;;10530521;28;20223;-70
2024/02/02 05:44:13;;;;;;;11.43;8.13;;;7.80;45.00;;;;;;10532753;27;20285;-70
2024/02/02 05:49:16;;;;;;;8.53;7.63;;;7.80;44.90;;;;;;10529258;28;20232;-67
2024/02/02 05:54:21;;;;;;;8.93;8.07;;;7.80;45.00;;;;;;10529533;28;20311;-70
2024/02/02 05:59:24;;;;;;;9.90;8.53;;;7.80;45.00;;;;;;10528495;28;20235;-71
2024/02/02 06:04:27;;;;;;;8.60;7.33;;;7.80;45.00;;;;;;10530854;28;20220;-68
2024/02/02 06:09:33;;;;;;;10.27;8.30;;;7.80;44.80;;;;;;10531040;28;20736;-68
2024/02/02 06:14:36;;;;;;;9.00;8.13;;;7.70;44.90;;;;;;10530659;28;20227;-70
2024/02/02 06:19:39;;;;;;;8.30;7.33;;;7.70;44.90;;;;;;10523985;28;20223;-71
2024/02/02 06:24:44;;;;;;;12.10;10.20;;;7.70;46.00;;;;;;10525007;28;20247;-70
2024/02/02 06:29:47;;;;;;;10.80;9.80;;;7.70;45.30;;;;;;10523695;28;20234;-67
2024/02/02 06:34:55;;;;;;;10.60;9.60;;;7.70;44.90;;;;;;10520904;28;20703;-66
2024/02/02 06:40:03;;;;;;;10.00;8.03;;;7.70;44.90;;;;;;10530706;28;20592;-67
2024/02/02 06:45:07;;;;;;;9.37;8.37;;;7.60;45.30;;;;;;10531366;28;20222;-67
2024/02/02 06:50:11;;;;;;;11.33;10.17;;;7.60;45.30;;;;;;10531019;28;20224;-67
2024/02/02 06:55:16;;;;;;;11.60;10.03;;;7.60;45.30;;;;;;10533362;28;20241;-66
2024/02/02 07:00:20;;;;;;;9.93;9.03;;;7.70;46.10;;;;;;10529419;28;20223;-67
2024/02/02 07:05:25;;;;;;;10.00;8.97;;;7.70;45.10;;;;;;10532483;28;20701;-66
2024/02/02 07:10:30;;;;;;;10.93;9.30;;;7.80;45.10;;;;;;10531972;28;20230;-67
2024/02/02 07:15:40;;;;;;;11.20;8.63;;;7.80;45.20;;;;;;10529970;28;20287;-67
2024/02/02 07:21:04;;;;;;;13.53;10.97;;;7.80;45.20;;;;;;10528683;28;20223;-67
2024/02/02 07:26:26;;;;;;;11.87;10.40;;;7.80;45.40;;;;;;10526044;28;20231;-67
2024/02/02 07:31:37;;;;;;;13.20;11.83;;;7.80;45.40;;;;;;10526539;28;20713;-66
2024/02/02 07:36:40;;;;;;;12.70;11.40;;;7.80;45.30;;;;;;10526955;28;20234;-68
2024/02/02 07:41:45;;;;;;;15.53;13.90;;;7.70;45.00;;;;;;10525834;27;20223;-68
2024/02/02 07:46:48;;;;;;;14.37;12.87;;;7.70;45.50;;;;;;10523850;28;20224;-69
2024/02/02 07:51:51;;;;;;;14.90;13.37;;;7.50;45.60;;;;;;10531823;28;20225;-69
2024/02/02 07:56:56;;;;;;;14.73;13.23;;;7.50;46.20;;;;;;10532213;28;20633;-68
2024/02/02 08:01:59;;;;;;;14.20;12.63;;;7.50;46.70;;;;;;10529742;28;20219;-68
2024/02/02 08:07:02;;;;;;;12.50;11.20;;;7.50;46.70;;;;;;10531453;28;20238;-68
2024/02/02 08:12:08;;;;;;;12.97;11.77;;;7.60;46.80;;;;;;10538611;28;20242;-69
2024/02/02 08:17:12;;;;;;;11.40;10.40;;;7.60;47.50;;;;;;10536877;28;20261;-69
2024/02/02 08:22:15;;;;;;;10.40;9.40;;;7.60;47.30;;;;;;10528135;28;20230;-69
2024/02/02 08:27:21;;;;;;;10.03;9.10;;;7.70;47.60;;;;;;10519696;28;20227;-69
2024/02/02 08:32:24;;;;;;;9.40;8.60;;;7.80;48.30;;;;;;10530315;28;20224;-69
2024/02/02 08:37:27;;;;;;;9.37;8.47;;;7.90;48.00;;;;;;10528869;28;20227;-69
2024/02/02 08:42:32;;;;;;;9.40;8.60;;;8.10;48.30;;;;;;10531696;28;20600;-69
2024/02/02 08:47:36;;;;;;;8.27;7.57;;;8.20;48.40;;;;;;10525914;28;20297;-69
2024/02/02 08:52:43;;;;;;;7.53;6.93;;;8.30;48.00;;;;;;10513490;28;20223;-69
2024/02/02 08:58:08;;;;;;;7.10;6.40;;;8.50;48.20;;;;;;10523890;28;20959;-69
2024/02/02 09:03:43;;;;;;;6.57;5.90;;;8.60;49.00;;;;;;10519767;28;20231;-69
2024/02/02 09:08:48;;;;;;;7.03;6.43;;;8.70;48.60;;;;;;10522230;28;20227;-69
2024/02/02 09:14:03;;;;;;;7.93;6.00;;;8.90;47.90;;;;;;10528120;28;20697;-69
2024/02/02 09:19:17;;;;;;;6.53;5.93;;;9.00;48.60;;;;;;10517930;28;20654;-69
2024/02/02 09:24:36;;;;;;;6.77;6.17;;;9.00;48.10;;;;;;10523728;28;20228;-69
2024/02/02 09:29:45;;;;;;;6.57;5.97;;;9.10;48.00;;;;;;10528229;28;20230;-69
2024/02/02 09:34:48;;;;;;;6.10;5.60;;;9.20;47.90;;;;;;10522021;28;20227;-69
2024/02/02 09:39:56;;;;;;;6.57;6.00;;;9.30;47.50;;;;;;10527250;27;20231;-69
2024/02/02 09:45:04;;;;;;;6.87;6.23;;;9.30;47.50;;;;;;10531150;28;20238;-69
2024/02/02 09:50:21;;;;;;;7.00;6.37;;;9.40;47.70;;;;;;10532648;28;20223;-71
2024/02/02 09:55:33;;;;;;;6.23;5.73;;;9.40;47.60;;;;;;10519007;28;20227;-69
2024/02/02 10:00:51;;;;;;;6.00;5.50;;;9.40;47.90;;;;;;10521533;28;20653;-69
2024/02/02 10:06:07;;;;;;;6.50;5.90;;;9.50;47.90;;;;;;10517442;28;20223;-69
2024/02/02 10:11:31;;;;;;;6.73;6.10;;;9.50;47.90;;;;;;10516625;28;20727;-69
2024/02/02 10:16:41;;;;;;;6.90;6.30;;;9.50;47.90;;;;;;10519478;28;20537;-69
2024/02/02 10:21:57;;;;;;;6.70;6.20;;;9.60;47.70;;;;;;10521699;28;20247;-69
2024/02/02 10:27:20;;;;;;;6.13;5.63;;;9.60;48.00;;;;;;10523187;28;20842;-69
2024/02/02 10:32:42;;;;;;;6.30;5.80;;;9.60;47.80;;;;;;10517737;28;20677;-69
2024/02/02 10:37:50;;;;;;;8.17;7.37;;;9.70;48.10;;;;;;10521832;28;20230;-69
2024/02/02 10:43:09;;;;;;;7.57;6.73;;;9.70;47.70;;;;;;10525174;28;20628;-69
2024/02/02 10:48:33;;;;;;;7.00;6.40;;;9.70;47.70;;;;;;10522735;28;20223;-69
2024/02/02 10:53:46;;;;;;;6.50;6.00;;;9.80;47.90;;;;;;10532200;28;20230;-69
2024/02/02 10:59:04;;;;;;;6.43;5.90;;;9.80;47.70;;;;;;10526249;28;20223;-70
2024/02/02 11:04:14;;;;;;;7.07;6.47;;;9.90;47.90;;;;;;10526229;28;20227;-66
2024/02/02 11:09:26;;;;;;;6.57;5.97;;;9.90;47.70;;;;;;10521191;28;20244;-66
2024/02/02 11:14:39;;;;;;;6.90;5.53;;;9.90;47.80;;;;;;10523493;28;20230;-67
2024/02/02 11:19:59;;;;;;;5.77;5.27;;;9.90;48.00;;;;;;10525995;28;20709;-66
2024/02/02 11:25:13;;;;;;;5.57;5.07;;;10.00;47.10;;;;;;10522167;27;20662;-67
2024/02/02 11:30:33;;;;;;;4.77;4.37;;;10.00;47.10;;;;;;10531718;28;20234;-70
2024/02/02 11:35:50;;;;;;;4.33;4.00;;;10.00;47.30;;;;;;10530493;28;20229;-71
2024/02/02 11:40:55;;;;;;;4.77;4.37;;;10.10;47.00;;;;;;10534290;28;20728;-70
2024/02/02 11:46:00;;;;;;;5.17;4.77;;;10.10;46.60;;;;;;10533280;28;20327;-70
2024/02/02 11:51:07;;;;;;;4.63;4.20;;;10.10;46.30;;;;;;10537275;28;20247;-70
2024/02/02 11:56:19;;;;;;;4.47;4.17;;;10.20;46.50;;;;;;10534146;28;20322;-70
2024/02/02 12:01:28;;;;;;;5.60;4.17;;;10.20;46.30;;;;;;10531449;28;20242;-70
2024/02/02 12:06:39;;;;;;;5.13;4.70;;;10.30;46.10;;;;;;10522967;28;20604;-71
2024/02/02 12:11:52;;;;;;;4.93;4.43;;;10.40;46.20;;;;;;10531029;28;20224;-70
2024/02/02 12:16:55;;;;;;;5.23;4.73;;;10.50;46.30;;;;;;10526107;27;20607;-70
2024/02/02 12:22:01;;;;;;;4.30;3.90;;;10.60;46.40;;;;;;10532088;27;20228;-70
2024/02/02 12:27:05;;;;;;;4.07;3.77;;;10.60;45.90;;;;;;10526868;28;20411;-70
2024/02/02 12:32:11;;;;;;;3.90;3.60;;;10.70;45.90;;;;;;10527685;28;20236;-70
2024/02/02 12:37:17;;;;;;;4.50;4.10;;;10.70;45.70;;;;;;10532667;28;20768;-67
2024/02/02 12:42:23;;;;;;;4.63;4.23;;;10.80;45.90;;;;;;10534218;28;20306;-71
2024/02/02 12:47:26;;;;;;;6.43;5.83;;;10.90;45.80;;;;;;10533004;28;20310;-71
2024/02/02 12:52:31;;;;;;;6.70;6.00;;;10.90;45.60;;;;;;10528797;28;20223;-71
2024/02/02 12:57:36;;;;;;;7.10;6.27;;;10.90;45.30;;;;;;10523914;28;20225;-70
2024/02/02 13:02:39;;;;;;;6.33;5.73;;;11.00;45.50;;;;;;10527988;28;20243;-71
2024/02/02 13:07:47;;;;;;;6.03;5.43;;;11.00;45.40;;;;;;10529955;28;20666;-69
2024/02/02 13:12:52;;;;;;;4.40;4.00;;;11.10;45.00;;;;;;10532946;28;20273;-69
2024/02/02 13:18:03;;;;;;;4.37;3.97;;;11.10;45.10;;;;;;10523248;28;20231;-69
2024/02/02 13:23:10;;;;;;;3.87;3.57;;;11.10;44.60;;;;;;10528309;28;20224;-69
2024/02/02 13:28:18;;;;;;;3.80;3.50;;;11.10;45.50;;;;;;10528675;28;20227;-69
2024/02/02 13:33:22;;;;;;;3.40;3.20;;;11.20;44.50;;;;;;10530118;28;20224;-69
2024/02/02 13:38:31;;;;;;;3.00;2.80;;;11.20;44.90;;;;;;10529778;28;20235;-69
2024/02/02 13:43:37;;;;;;;3.40;3.10;;;11.20;44.50;;;;;;10529983;28;20234;-70
2024/02/02 13:48:47;;;;;;;3.80;3.50;;;11.30;44.60;;;;;;10525168;27;20292;-71
2024/02/02 13:53:52;;;;;;;4.50;4.10;;;11.30;44.40;;;;;;10524756;28;20231;-70
2024/02/02 13:58:56;;;;;;;3.50;3.20;;;11.40;44.20;;;;;;10522526;28;20234;-71
2024/02/02 14:03:59;;;;;;;3.23;2.93;;;11.40;44.40;;;;;;10517084;28;20228;-71
2024/02/02 14:09:04;;;;;;;3.07;2.87;;;11.50;44.00;;;;;;10525674;28;20215;-69
2024/02/02 14:14:09;;;;;;;3.37;3.10;;;11.50;43.70;;;;;;10520840;28;20276;-69
2024/02/02 14:19:13;;;;;;;3.70;3.40;;;11.50;44.10;;;;;;10523628;28;20654;-69
2024/02/02 14:24:18;;;;;;;3.40;3.10;;;11.50;43.80;;;;;;10525605;28;20481;-71
2024/02/02 14:29:23;;;;;;;4.13;3.83;;;11.50;43.50;;;;;;10524141;28;20234;-71
2024/02/02 14:34:27;;;;;;;3.60;3.30;;;11.50;43.80;;;;;;10520211;28;21069;-67
2024/02/02 14:39:32;;;;;;;4.10;3.80;;;11.60;44.00;;;;;;10519875;28;20235;-67
2024/02/02 14:44:36;;;;;;;4.20;3.90;;;11.60;43.60;;;;;;10512145;28;20228;-67
2024/02/02 14:49:39;;;;;;;4.13;3.80;;;11.70;43.90;;;;;;10518424;28;20294;-67
2024/02/02 14:54:45;;;;;;;4.30;3.70;;;11.70;43.60;;;;;;10507990;28;20237;-68
2024/02/02 14:59:51;;;;;;;4.70;4.30;;;11.70;43.40;;;;;;10514018;28;20707;-67
2024/02/02 15:04:56;;;;;;;4.10;3.80;;;11.80;43.70;;;;;;10523758;28;21027;-71
2024/02/02 15:10:07;;;;;;;4.43;3.80;;;11.80;43.30;;;;;;10523902;28;20219;-70
2024/02/02 15:15:10;;;;;;;4.00;3.70;;;11.70;42.90;;;;;;10519130;28;20601;-70
2024/02/02 15:20:14;;;;;;;3.93;3.63;;;11.80;43.50;;;;;;10518312;28;20223;-71
2024/02/02 15:25:19;;;;;;;4.27;3.90;;;11.80;43.40;;;;;;10525963;28;20232;-71
2024/02/02 15:30:22;;;;;;;4.27;3.90;;;11.80;43.00;;;;;;10522526;28;20232;-71
2024/02/02 15:35:25;;;;;;;4.10;3.80;;;11.80;43.30;;;;;;10521447;28;20264;-71
2024/02/02 15:40:30;;;;;;;4.27;3.97;;;11.80;43.10;;;;;;10521439;28;20227;-71
2024/02/02 15:45:35;;;;;;;6.13;5.53;;;11.80;42.70;;;;;;10529809;28;20309;-71
2024/02/02 15:50:38;;;;;;;5.23;4.83;;;11.70;42.60;;;;;;10528323;28;20231;-72
2024/02/02 15:55:44;;;;;;;4.23;3.93;;;11.70;42.80;;;;;;10530625;28;20253;-71
2024/02/02 16:00:48;;;;;;;4.37;4.03;;;11.70;42.40;;;;;;10526949;28;20298;-71
2024/02/02 16:05:51;;;;;;;4.20;3.90;;;11.70;42.80;;;;;;10519892;28;20220;-71
2024/02/02 16:10:56;;;;;;;4.50;4.03;;;11.60;42.60;;;;;;10517459;28;20254;-70
2024/02/02 16:15:59;;;;;;;4.30;4.00;;;11.60;42.40;;;;;;10524641;28;20302;-76
2024/02/02 16:21:02;;;;;;;3.90;3.60;;;11.60;42.60;;;;;;10535210;27;20212;-70
2024/02/02 16:26:07;;;;;;;4.33;3.97;;;11.60;42.50;;;;;;10535060;28;20223;-70
2024/02/02 16:31:11;;;;;;;4.40;4.00;;;11.50;42.00;;;;;;10534228;28;20230;-70
2024/02/02 16:36:14;;;;;;;4.10;3.80;;;11.50;42.30;;;;;;10531624;28;20238;-71
2024/02/02 16:41:19;;;;;;;4.07;3.77;;;11.50;42.40;;;;;;10527723;28;20227;-70
2024/02/02 16:46:22;;;;;;;4.30;3.90;;;11.40;42.20;;;;;;10536992;28;20242;-70
2024/02/02 16:51:25;;;;;;;4.43;3.67;;;11.40;42.50;;;;;;10529185;28;20230;-71
2024/02/02 16:56:30;;;;;;;4.10;3.80;;;11.40;42.40;;;;;;10529004;28;20239;-71
2024/02/02 17:01:35;;;;;;;4.53;4.13;;;11.40;42.10;;;;;;10528399;28;20281;-71
2024/02/02 17:06:40;;;;;;;5.07;4.67;;;11.40;42.40;;;;;;10531836;28;20234;-71
2024/02/02 17:11:45;;;;;;;4.50;4.10;;;11.40;42.20;;;;;;10533060;28;20224;-69
2024/02/02 17:16:49;;;;;;;4.40;4.03;;;11.30;42.10;;;;;;10526916;28;20272;-67
2024/02/02 17:21:52;;;;;;;4.10;3.80;;;11.40;42.50;;;;;;10530161;28;20296;-67
2024/02/02 17:26:57;;;;;;;10.47;8.83;;;11.40;42.40;;;;;;10529540;27;20219;-66
2024/02/02 17:32:00;;;;;;;6.73;6.03;;;11.30;42.30;;;;;;10531625;28;20712;-66
2024/02/02 17:37:03;;;;;;;4.70;4.30;;;11.30;42.60;;;;;;10528611;27;20731;-67
2024/02/02 17:42:08;;;;;;;4.00;3.70;;;11.30;42.60;;;;;;10525703;28;20675;-68
2024/02/02 17:47:11;;;;;;;3.97;3.60;;;11.30;42.60;;;;;;10533953;28;20233;-69
2024/02/02 17:52:14;;;;;;;3.77;3.47;;;11.30;42.90;;;;;;10524903;28;20231;-69
2024/02/02 17:57:19;;;;;;;3.90;3.60;;;11.30;42.70;;;;;;10530446;28;20259;-69
2024/02/02 18:02:22;;;;;;;3.77;3.47;;;11.30;42.40;;;;;;10532805;28;20227;-69
2024/02/02 18:07:26;;;;;;;4.20;3.90;;;11.30;42.70;;;;;;10529702;28;20253;-69
2024/02/02 18:12:43;;;;;;;3.80;3.50;;;11.30;42.60;;;;;;10530569;28;20276;-66
2024/02/02 18:17:47;;;;;;;3.43;3.23;;;11.20;42.30;;;;;;10528240;28;20242;-69
2024/02/02 18:22:51;;;;;;;3.20;3.00;;;11.20;42.40;;;;;;10525536;28;20227;-70
2024/02/02 18:27:55;;;;;;;2.80;2.60;;;11.20;42.50;;;;;;10530249;28;20257;-70
2024/02/02 18:32:58;;;;;;;3.30;3.00;;;11.20;42.30;;;;;;10518305;28;20227;-67
2024/02/02 18:38:02;;;;;;;3.17;2.57;;;11.20;42.20;;;;;;10524285;28;20315;-69
2024/02/02 18:43:07;;;;;;;2.83;2.63;;;11.20;42.30;;;;;;10531869;28;20254;-66
2024/02/02 18:48:10;;;;;;;3.10;2.80;;;11.30;41.90;;;;;;10534621;28;20234;-66
2024/02/02 18:53:13;;;;;;;4.17;2.60;;;11.20;42.60;;;;;;10529459;28;20241;-66
2024/02/02 18:58:18;;;;;;;3.90;3.60;;;11.30;41.90;;;;;;10526475;28;20236;-66
2024/02/02 19:03:31;;;;;;;2.60;2.40;;;11.20;41.50;;;;;;10528189;28;21631;-67
2024/02/02 19:08:34;;;;;;;2.67;2.47;;;11.30;41.70;;;;;;10527907;28;20228;-66
2024/02/02 19:13:39;;;;;;;2.80;2.60;;;11.30;41.70;;;;;;10535701;28;20241;-66
2024/02/02 19:18:42;;;;;;;2.87;2.57;;;11.20;41.00;;;;;;10530579;28;20227;-66
2024/02/02 19:23:45;;;;;;;2.90;2.37;;;11.20;41.40;;;;;;10529337;28;20281;-66
2024/02/02 19:28:51;;;;;;;2.67;2.47;;;11.30;41.50;;;;;;10530663;28;20591;-66
2024/02/02 19:33:55;;;;;;;2.20;2.10;;;11.30;41.10;;;;;;10529940;28;20341;-66
2024/02/02 19:39:00;;;;;;;2.40;2.20;;;11.20;41.00;;;;;;10525682;28;20223;-67
2024/02/02 19:44:05;;;;;;;2.33;2.23;;;11.20;41.70;;;;;;10527466;28;20227;-66
2024/02/02 19:49:08;;;;;;;2.60;2.40;;;11.20;41.00;;;;;;10533388;28;20311;-66
2024/02/02 19:54:13;;;;;;;2.23;2.10;;;11.20;41.10;;;;;;10536039;28;20230;-70
2024/02/02 19:59:18;;;;;;;2.30;2.10;;;11.20;41.00;;;;;;10524540;28;20456;-69
2024/02/02 20:04:23;;;;;;;3.03;2.70;;;11.10;40.90;;;;;;10527840;28;20234;-70
2024/02/02 20:09:27;;;;;;;2.80;2.60;;;11.10;41.10;;;;;;10528811;28;20228;-70
2024/02/02 20:14:31;;;;;;;3.03;2.73;;;11.10;41.00;;;;;;10530424;28;20572;-70
2024/02/02 20:19:38;;;;;;;3.03;2.77;;;11.10;40.90;;;;;;10530165;28;20238;-70
2024/02/02 20:24:42;;;;;;;2.93;2.73;;;11.10;41.10;;;;;;10532884;28;20326;-70
2024/02/02 20:29:46;;;;;;;2.83;2.40;;;11.00;40.80;;;;;;10527858;27;20619;-70
2024/02/02 20:34:50;;;;;;;2.60;2.40;;;11.00;40.80;;;;;;10527107;27;20318;-70
2024/02/02 20:39:53;;;;;;;3.30;3.00;;;11.00;40.90;;;;;;10527896;28;20227;-70
2024/02/02 20:44:58;;;;;;;2.10;2.00;;;11.00;40.80;;;;;;10529646;28;20227;-70
2024/02/02 20:50:08;;;;;;;2.97;2.23;;;11.00;40.80;;;;;;10529934;28;20222;-70
2024/02/02 20:55:13;;;;;;;2.60;2.40;;;11.00;40.80;;;;;;10528861;28;20232;-69
2024/02/02 21:00:19;;;;;;;2.47;2.27;;;11.00;40.80;;;;;;10529172;28;20247;-69
2024/02/02 21:05:23;;;;;;;2.40;2.20;;;11.00;41.30;;;;;;10534841;28;20254;-70
2024/02/02 21:10:28;;;;;;;2.50;2.30;;;11.00;40.80;;;;;;10532437;27;20230;-70
2024/02/02 21:15:33;;;;;;;2.20;2.00;;;11.10;40.90;;;;;;10528451;27;20779;-69
2024/02/02 21:20:42;;;;;;;2.47;1.97;;;11.10;39.90;;;;;;10524887;28;20320;-70
2024/02/02 21:25:46;;;;;;;2.43;2.23;;;11.10;40.10;;;;;;10527255;28;20258;-70
2024/02/02 21:30:51;;;;;;;2.53;2.10;;;11.20;39.90;;;;;;10522765;27;20246;-70
2024/02/02 21:36:02;;;;;;;2.20;2.00;;;11.20;39.80;;;;;;10529163;28;20231;-70
2024/02/02 21:41:06;;;;;;;2.33;2.13;;;11.30;39.80;;;;;;10530576;28;20611;-69
2024/02/02 21:46:19;;;;;;;2.57;2.37;;;11.30;39.60;;;;;;10523912;28;20228;-70
2024/02/02 21:51:22;;;;;;;4.13;2.47;;;11.30;38.80;;;;;;10533767;28;20236;-70
2024/02/02 21:56:25;;;;;;;2.50;2.30;;;11.30;39.80;;;;;;10518740;28;20768;-70
2024/02/02 22:01:35;;;;;;;2.40;2.20;;;11.30;39.70;;;;;;10527767;28;20235;-70
2024/02/02 22:06:39;;;;;;;2.40;2.20;;;11.20;38.70;;;;;;10525298;28;20295;-70
2024/02/02 22:11:43;;;;;;;2.13;1.93;;;11.20;39.60;;;;;;10520976;28;20231;-70
2024/02/02 22:16:48;;;;;;;2.37;2.13;;;11.20;39.80;;;;;;10524491;28;20317;-69
2024/02/02 22:21:51;;;;;;;2.23;2.10;;;11.10;39.30;;;;;;10522755;28;20230;-69
2024/02/02 22:26:54;;;;;;;2.20;2.00;;;11.10;39.50;;;;;;10521069;28;20669;-69
2024/02/02 22:31:59;;;;;;;2.50;2.10;;;11.10;39.70;;;;;;10523266;28;20227;-69
2024/02/02 22:37:02;;;;;;;2.70;2.50;;;11.10;39.30;;;;;;10518474;28;20226;-69
2024/02/02 22:42:06;;;;;;;2.17;1.97;;;11.10;39.60;;;;;;10519209;28;20219;-69
2024/02/02 22:47:12;;;;;;;2.50;2.30;;;11.10;39.50;;;;;;10525430;28;20318;-69
2024/02/02 22:52:18;;;;;;;2.60;2.40;;;11.10;39.40;;;;;;10522931;28;20359;-67
2024/02/02 22:57:21;;;;;;;2.40;2.20;;;11.10;39.50;;;;;;10525030;28;20593;-66
2024/02/02 23:02:26;;;;;;;2.40;2.20;;;11.00;39.40;;;;;;10520917;28;20400;-67
2024/02/02 23:07:29;;;;;;;2.30;2.10;;;11.00;39.20;;;;;;10514770;28;20235;-67
2024/02/02 23:12:32;;;;;;;2.00;1.90;;;11.00;39.50;;;;;;10522517;27;20297;-66
2024/02/02 23:17:37;;;;;;;2.20;2.00;;;11.00;39.40;;;;;;10522497;27;20706;-66
2024/02/02 23:22:40;;;;;;;2.40;2.20;;;11.00;38.80;;;;;;10523982;28;20313;-66
2024/02/02 23:27:44;;;;;;;2.60;2.40;;;10.90;39.20;;;;;;10531273;27;20243;-68
2024/02/02 23:32:49;;;;;;;2.30;2.10;;;10.90;38.80;;;;;;10531316;28;20353;-68
2024/02/02 23:37:52;;;;;;;2.40;2.20;;;10.90;38.40;;;;;;10525440;27;20277;-69
2024/02/02 23:42:56;;;;;;;1.90;1.80;;;10.90;39.10;;;;;;10531490;28;21257;-69
2024/02/02 23:48:00;;;;;;;2.07;1.80;;;10.80;39.80;;;;;;10540610;28;20318;-69
2024/02/02 23:53:04;;;;;;;2.60;1.87;;;10.80;38.80;;;;;;10532953;28;20229;-70
2024/02/02 23:58:07;;;;;;;2.10;1.90;;;10.80;39.20;;;;;;10530317;28;20228;-70
